Time,TemperatureF,DewpointF,PressureIn,WindDirection,WindDirectionDegrees,WindSpeedMPH,WindSpeedGustMPH,Humidity,HourlyPrecipIn,Conditions,Clouds,dailyrainin,SolarRadiationWatts/m^2,SoftwareType,DateUTC
2014-12-20 00:00:00,70.1,68.3,29.91,NE,49,4.0,4.0,94,0.00,,,0.00,0,Wunderground v.1.15,2014-12-20 06:00:00,
2014-12-20 00:10:00,69.9,68.1,29.91,NE,53,3.0,3.0,94,0.00,,,0.00,0,Wunderground v.1.15,2014-12-20 06:10:00,
2014-12-20 00:20:00,70.0,68.2,29.91,NE,52,4.0,4.0,94,0.00,,,0.00,0,Wunderground v.1.15,2014-12-20 06:20:00,
2014-12-20 00:25:00,70.0,68.2,29.91,NE,56,3.0,4.0,94,0.00,,,0.00,0,Wunderground v.1.15,2014-12-20 06:25:00,
2014-12-20 00:35:00,69.8,68.3,29.91,ENE,68,2.0,5.0,95,0.00,,,0.00,0,Wunderground v.1.15,2014-12-20 06:35:00,
2014-12-20 00:45:00,69.8,68.3,29.90,ENE,71,5.0,5.0,95,0.00,,,0.00,0,Wunderground v.1.15,2014-12-20 06:45:00,
2014-12-20 00:55:00,69.9,68.4,29.90,ENE,69,5.0,6.0,95,0.00,,,0.00,0,Wunderground v.1.15,2014-12-20 06:55:00,
2014-12-20 01:00:00,70.0,68.8,29.90,ENE,60,6.0,6.0,96,0.00,,,0.00,0,Wunderground v.1.15,2014-12-20 07:00:00,
2014-12-20 01:10:00,69.5,68.3,29.90,ENE,72,5.0,5.0,96,0.00,,,0.00,0,Wunderground v.1.15,2014-12-20 07:10:00,
2014-12-20 01:15:00,69.5,68.3,29.90,ENE,72,5.0,6.0,96,0.00,,,0.00,0,Wunderground v.1.15,2014-12-20 07:15:00,
2014-12-20 01:25:00,69.6,68.4,29.90,ENE,69,5.0,6.0,96,0.00,,,0.00,0,Wunderground v.1.15,2014-12-20 07:25:00,
2014-12-20 01:30:00,69.8,68.9,29.89,ENE,69,5.0,5.0,97,0.00,,,0.00,0,Wunderground v.1.15,2014-12-20 07:30:00,
2014-12-20 01:40:00,70.4,69.5,29.89,ENE,61,5.0,5.0,97,0.00,,,0.00,0,Wunderground v.1.15,2014-12-20 07:40:00,
2014-12-20 01:50:00,70.8,69.9,29.89,NE,51,6.0,6.0,97,0.00,,,0.00,0,Wunderground v.1.15,2014-12-20 07:50:00,
2014-12-20 02:00:00,70.8,69.9,29.88,NE,49,6.0,6.0,97,0.00,,,0.00,0,Wunderground v.1.15,2014-12-20 08:00:00,
2014-12-20 02:10:00,70.9,70.0,29.88,NE,49,5.0,5.0,97,0.00,,,0.00,0,Wunderground v.1.15,2014-12-20 08:10:00,
2014-12-20 02:15:00,71.0,70.1,29.88,NNE,33,4.0,5.0,97,0.00,,,0.00,0,Wunderground v.1.15,2014-12-20 08:15:00,
2014-12-20 02:25:00,71.0,70.1,29.88,NE,51,3.0,3.0,97,0.00,,,0.00,0,Wunderground v.1.15,2014-12-20 08:25:00,
2014-12-20 02:35:00,70.9,70.0,29.88,NE,51,2.0,4.0,97,0.00,,,0.00,0,Wunderground v.1.15,2014-12-20 08:35:00,
2014-12-20 02:40:00,71.0,70.1,29.88,NE,45,3.0,4.0,97,0.00,,,0.00,0,Wunderground v.1.15,2014-12-20 08:40:00,
2014-12-20 02:50:00,71.0,70.1,29.88,NE,50,4.0,4.0,97,0.00,,,0.00,0,Wunderground v.1.15,2014-12-20 08:50:00,
2014-12-20 03:00:00,70.8,69.9,29.87,ENE,60,3.0,3.0,97,0.00,,,0.00,0,Wunderground v.1.15,2014-12-20 09:00:00,
2014-12-20 03:10:00,70.8,69.9,29.87,NE,53,3.0,3.0,97,0.00,,,0.00,0,Wunderground v.1.15,2014-12-20 09:10:00,
2014-12-20 03:15:00,70.8,69.9,29.87,ENE,68,2.0,3.0,97,0.00,,,0.00,0,Wunderground v.1.15,2014-12-20 09:15:00,
2014-12-20 03:25:00,70.7,69.8,29.87,NE,49,2.0,2.0,97,0.00,,,0.00,0,Wunderground v.1.15,2014-12-20 09:25:00,
2014-12-20 03:30:00,70.7,69.8,29.87,NE,49,2.0,3.0,97,0.00,,,0.00,0,Wunderground v.1.15,2014-12-20 09:30:00,
2014-12-20 03:40:00,70.2,69.3,29.87,NE,41,2.0,3.0,97,0.00,,,0.00,0,Wunderground v.1.15,2014-12-20 09:40:00,
2014-12-20 03:45:00,69.9,69.0,29.87,NE,41,2.0,3.0,97,0.00,,,0.00,0,Wunderground v.1.15,2014-12-20 09:45:00,
2014-12-20 03:50:00,69.7,68.8,29.87,NNE,33,2.0,2.0,97,0.00,,,0.00,0,Wunderground v.1.15,2014-12-20 09:50:00,
2014-12-20 04:00:00,69.0,68.1,29.88,North,11,3.0,3.0,97,0.00,,,0.00,0,Wunderground v.1.15,2014-12-20 10:00:00,
2014-12-20 04:10:00,68.9,68.0,29.88,North,10,3.0,3.0,97,0.00,,,0.00,0,Wunderground v.1.15,2014-12-20 10:10:00,
2014-12-20 04:20:00,68.8,67.9,29.88,NW,323,4.0,4.0,97,0.00,,,0.00,0,Wunderground v.1.15,2014-12-20 10:20:00,
2014-12-20 04:30:00,68.4,67.5,29.88,NW,324,4.0,4.0,97,0.00,,,0.00,0,Wunderground v.1.15,2014-12-20 10:30:00,
2014-12-20 04:40:00,68.4,67.8,29.88,NW,323,3.0,3.0,98,0.00,,,0.00,0,Wunderground v.1.15,2014-12-20 10:40:00,
2014-12-20 04:45:00,68.7,68.1,29.89,NNW,338,3.0,3.0,98,0.00,,,0.00,0,Wunderground v.1.15,2014-12-20 10:45:00,
2014-12-20 04:55:00,68.9,68.3,29.89,North,355,2.0,3.0,98,0.00,,,0.00,0,Wunderground v.1.15,2014-12-20 10:55:00,
2014-12-20 05:00:00,68.7,68.1,29.90,North,351,3.0,4.0,98,0.00,,,0.00,0,Wunderground v.1.15,2014-12-20 11:00:00,
2014-12-20 05:10:00,68.2,67.6,29.90,NNW,338,5.0,5.0,98,0.00,,,0.00,0,Wunderground v.1.15,2014-12-20 11:10:00,
2014-12-20 05:15:00,68.0,67.4,29.91,NNW,342,6.0,6.0,98,0.00,,,0.00,0,Wunderground v.1.15,2014-12-20 11:15:00,
2014-12-20 05:20:00,68.0,67.4,29.91,NNW,336,5.0,5.0,98,0.00,,,0.00,0,Wunderground v.1.15,2014-12-20 11:20:00,
2014-12-20 05:30:00,68.9,68.3,29.91,NNW,346,5.0,5.0,98,0.00,,,0.00,0,Wunderground v.1.15,2014-12-20 11:30:00,
2014-12-20 05:35:00,69.1,68.5,29.91,North,355,5.0,5.0,98,0.00,,,0.00,0,Wunderground v.1.15,2014-12-20 11:35:00,
2014-12-20 05:40:00,69.1,68.5,29.91,North,360,4.0,4.0,98,0.00,,,0.00,0,Wunderground v.1.15,2014-12-20 11:40:00,
2014-12-20 05:50:00,68.9,68.3,29.92,NNW,333,2.0,5.0,98,0.00,,,0.00,0,Wunderground v.1.15,2014-12-20 11:50:00,
2014-12-20 05:55:00,69.1,68.5,29.92,NNW,340,2.0,5.0,98,0.00,,,0.00,0,Wunderground v.1.15,2014-12-20 11:55:00,
2014-12-20 06:00:00,69.1,68.5,29.92,NNW,341,3.0,3.0,98,0.00,,,0.00,0,Wunderground v.1.15,2014-12-20 12:00:00,
2014-12-20 06:10:00,69.5,68.9,29.92,North,5,4.0,4.0,98,0.00,,,0.00,0,Wunderground v.1.15,2014-12-20 12:10:00,
2014-12-20 06:20:00,69.3,68.7,29.92,North,350,4.0,5.0,98,0.00,,,0.00,0,Wunderground v.1.15,2014-12-20 12:20:00,
2014-12-20 06:25:00,69.5,68.9,29.92,North,349,4.0,5.0,98,0.00,,,0.00,0,Wunderground v.1.15,2014-12-20 12:25:00,
2014-12-20 06:35:00,69.9,69.3,29.93,North,351,4.0,4.0,98,0.00,,,0.00,0,Wunderground v.1.15,2014-12-20 12:35:00,
2014-12-20 06:45:00,70.3,69.7,29.93,NNE,26,4.0,4.0,98,0.00,,,0.00,5,Wunderground v.1.15,2014-12-20 12:45:00,
2014-12-20 06:50:00,70.6,70.3,29.93,NNE,24,4.0,5.0,99,0.00,,,0.00,12,Wunderground v.1.15,2014-12-20 12:50:00,
2014-12-20 07:00:00,71.2,70.6,29.94,NE,34,4.0,5.0,98,0.00,,,0.00,18,Wunderground v.1.15,2014-12-20 13:00:00,
2014-12-20 07:10:00,71.6,71.0,29.94,NE,34,5.0,5.0,98,0.00,,,0.00,16,Wunderground v.1.15,2014-12-20 13:10:00,
2014-12-20 07:20:00,71.8,71.2,29.94,NNE,22,4.0,4.0,98,0.00,,,0.00,35,Wunderground v.1.15,2014-12-20 13:20:00,
2014-12-20 07:30:00,72.1,71.5,29.95,NNE,17,4.0,4.0,98,0.00,,,0.00,120,Wunderground v.1.15,2014-12-20 13:30:00,
2014-12-20 07:35:00,72.4,71.8,29.95,NNE,14,4.0,4.0,98,0.00,,,0.00,206,Wunderground v.1.15,2014-12-20 13:35:00,
2014-12-20 07:40:00,72.9,72.3,29.95,NNE,19,3.0,3.0,98,0.00,,,0.00,229,Wunderground v.1.15,2014-12-20 13:40:00,
2014-12-20 07:50:00,73.2,72.6,29.95,North,10,4.0,6.0,98,0.00,,,0.00,111,Wunderground v.1.15,2014-12-20 13:50:00,
2014-12-20 07:55:00,73.3,72.7,29.95,North,5,6.0,7.0,98,0.00,,,0.00,91,Wunderground v.1.15,2014-12-20 13:55:00,
2014-12-20 08:00:00,73.5,72.9,29.95,North,9,6.0,6.0,98,0.00,,,0.00,90,Wunderground v.1.15,2014-12-20 14:00:00,
2014-12-20 08:10:00,73.7,73.1,29.95,NE,36,5.0,6.0,98,0.00,,,0.00,125,Wunderground v.1.15,2014-12-20 14:10:00,
2014-12-20 08:15:00,73.9,73.3,29.96,NNE,28,5.0,6.0,98,0.00,,,0.00,171,Wunderground v.1.15,2014-12-20 14:15:00,
2014-12-20 08:25:00,74.3,73.4,29.96,NNE,32,5.0,6.0,97,0.00,,,0.00,142,Wunderground v.1.15,2014-12-20 14:25:00,
2014-12-20 08:30:00,74.4,73.2,29.97,NNE,16,5.0,5.0,96,0.00,,,0.00,125,Wunderground v.1.15,2014-12-20 14:30:00,
2014-12-20 08:40:00,74.9,73.4,29.97,North,355,6.0,6.0,95,0.00,,,0.00,169,Wunderground v.1.15,2014-12-20 14:40:00,
2014-12-20 08:50:00,75.5,73.7,29.97,North,355,5.0,9.0,94,0.00,,,0.00,295,Wunderground v.1.15,2014-12-20 14:50:00,
2014-12-20 08:55:00,75.8,73.6,29.97,NNE,30,6.0,12.0,93,0.00,,,0.00,178,Wunderground v.1.15,2014-12-20 14:55:00,
2014-12-20 09:00:00,76.1,73.9,29.97,NE,34,6.0,6.0,93,0.00,,,0.00,135,Wunderground v.1.15,2014-12-20 15:00:00,
2014-12-20 09:10:00,76.1,73.6,29.97,NNE,26,6.0,6.0,92,0.00,,,0.00,188,Wunderground v.1.15,2014-12-20 15:10:00,
2014-12-20 09:15:00,76.2,73.4,29.98,NNE,26,6.0,8.0,91,0.00,,,0.00,183,Wunderground v.1.15,2014-12-20 15:15:00,
2014-12-20 09:20:00,76.4,73.6,29.98,ENE,62,7.0,7.0,91,0.00,,,0.00,438,Wunderground v.1.15,2014-12-20 15:20:00,
2014-12-20 09:30:00,77.4,74.2,29.98,NE,45,4.0,4.0,90,0.00,,,0.00,425,Wunderground v.1.15,2014-12-20 15:30:00,
2014-12-20 09:40:00,78.1,73.9,29.98,NNE,25,5.0,6.0,87,0.00,,,0.00,322,Wunderground v.1.15,2014-12-20 15:40:00,
2014-12-20 09:50:00,78.1,73.9,29.98,NNE,13,6.0,7.0,87,0.00,,,0.00,281,Wunderground v.1.15,2014-12-20 15:50:00,
2014-12-20 09:55:00,78.7,73.8,29.98,ENE,74,6.0,9.0,85,0.00,,,0.00,687,Wunderground v.1.15,2014-12-20 15:55:00,
2014-12-20 10:00:00,79.5,73.9,29.97,NNE,28,7.0,10.0,83,0.00,,,0.00,745,Wunderground v.1.15,2014-12-20 16:00:00,
2014-12-20 10:10:00,79.1,73.1,29.97,North,360,9.0,10.0,82,0.00,,,0.00,673,Wunderground v.1.15,2014-12-20 16:10:00,
2014-12-20 10:15:00,79.0,73.0,29.97,NNE,22,9.0,10.0,82,0.00,,,0.00,708,Wunderground v.1.15,2014-12-20 16:15:00,
2014-12-20 10:25:00,80.3,73.6,29.97,North,9,8.0,11.0,80,0.00,,,0.00,793,Wunderground v.1.15,2014-12-20 16:25:00,
2014-12-20 10:35:00,80.3,73.6,29.97,North,360,8.0,9.0,80,0.00,,,0.00,211,Wunderground v.1.15,2014-12-20 16:35:00,
2014-12-20 10:40:00,79.9,73.5,29.97,NNE,27,8.0,8.0,81,0.00,,,0.00,213,Wunderground v.1.15,2014-12-20 16:40:00,
2014-12-20 10:50:00,79.7,73.3,29.96,NNE,30,7.0,11.0,81,0.00,,,0.00,244,Wunderground v.1.15,2014-12-20 16:50:00,
2014-12-20 10:55:00,79.3,73.0,29.96,North,360,9.0,11.0,81,0.00,,,0.00,253,Wunderground v.1.15,2014-12-20 16:55:00,
2014-12-20 11:00:00,79.1,72.8,29.96,North,5,10.0,10.0,81,0.00,,,0.00,515,Wunderground v.1.15,2014-12-20 17:00:00,
2014-12-20 11:10:00,79.7,73.3,29.96,NE,34,10.0,11.0,81,0.00,,,0.00,304,Wunderground v.1.15,2014-12-20 17:10:00,
2014-12-20 11:20:00,80.0,73.3,29.95,NNE,19,9.0,9.0,80,0.00,,,0.00,320,Wunderground v.1.15,2014-12-20 17:20:00,
2014-12-20 11:30:00,80.7,73.2,29.95,NNE,30,8.0,8.0,78,0.00,,,0.00,313,Wunderground v.1.15,2014-12-20 17:30:00,
2014-12-20 11:35:00,81.5,73.6,29.94,NNE,18,8.0,8.0,77,0.00,,,0.00,348,Wunderground v.1.15,2014-12-20 17:35:00,
2014-12-20 11:40:00,82.0,74.1,29.94,ENE,57,7.0,10.0,77,0.00,,,0.00,381,Wunderground v.1.15,2014-12-20 17:40:00,
2014-12-20 11:50:00,81.5,73.6,29.94,NNW,333,8.0,10.0,77,0.00,,,0.00,281,Wunderground v.1.15,2014-12-20 17:50:00,
2014-12-20 12:00:00,81.3,73.0,29.93,North,360,10.0,12.0,76,0.00,,,0.00,907,Wunderground v.1.15,2014-12-20 18:00:00,
2014-12-20 12:10:00,82.1,73.0,29.93,NNW,334,9.0,9.0,74,0.00,,,0.00,271,Wunderground v.1.15,2014-12-20 18:10:00,
2014-12-20 12:15:00,82.4,72.9,29.92,North,360,10.0,10.0,73,0.00,,,0.00,907,Wunderground v.1.15,2014-12-20 18:15:00,
2014-12-20 12:25:00,82.5,73.0,29.92,NNW,338,10.0,13.0,73,0.00,,,0.00,803,Wunderground v.1.15,2014-12-20 18:25:00,
2014-12-20 12:35:00,82.6,72.7,29.91,NNW,336,9.0,10.0,72,0.00,,,0.00,775,Wunderground v.1.15,2014-12-20 18:35:00,
2014-12-20 12:45:00,82.6,72.7,29.91,NNE,13,11.0,15.0,72,0.00,,,0.00,255,Wunderground v.1.15,2014-12-20 18:45:00,
2014-12-20 12:50:00,82.0,72.1,29.91,NNE,17,10.0,12.0,72,0.00,,,0.00,327,Wunderground v.1.15,2014-12-20 18:50:00,
2014-12-20 13:00:00,82.1,72.6,29.90,NE,38,11.0,14.0,73,0.00,,,0.00,497,Wunderground v.1.15,2014-12-20 19:00:00,
2014-12-20 13:10:00,81.5,72.0,29.90,North,11,10.0,12.0,73,0.00,,,0.00,390,Wunderground v.1.15,2014-12-20 19:10:00,
2014-12-20 13:15:00,81.8,72.3,29.90,North,5,11.0,12.0,73,0.00,,,0.00,295,Wunderground v.1.15,2014-12-20 19:15:00,
2014-12-20 13:25:00,82.1,72.2,29.90,NNE,29,10.0,11.0,72,0.00,,,0.00,380,Wunderground v.1.15,2014-12-20 19:25:00,
2014-12-20 13:35:00,82.0,72.1,29.89,North,9,10.0,15.0,72,0.00,,,0.00,313,Wunderground v.1.15,2014-12-20 19:35:00,
2014-12-20 13:40:00,82.4,72.5,29.89,NNW,342,10.0,11.0,72,0.00,,,0.00,411,Wunderground v.1.15,2014-12-20 19:40:00,
2014-12-20 13:50:00,82.3,72.4,29.89,North,5,9.0,14.0,72,0.00,,,0.00,264,Wunderground v.1.15,2014-12-20 19:50:00,
2014-12-20 13:55:00,82.4,72.5,29.89,NNW,331,9.0,17.0,72,0.00,,,0.00,802,Wunderground v.1.15,2014-12-20 19:55:00,
2014-12-20 14:00:00,82.1,72.6,29.89,NNW,331,12.0,12.0,73,0.00,,,0.00,302,Wunderground v.1.15,2014-12-20 20:00:00,
2014-12-20 14:10:00,81.9,72.4,29.89,North,360,10.0,10.0,73,0.00,,,0.00,575,Wunderground v.1.15,2014-12-20 20:10:00,
2014-12-20 14:20:00,81.2,72.1,29.89,NNE,20,12.0,12.0,74,0.00,,,0.00,585,Wunderground v.1.15,2014-12-20 20:20:00,
2014-12-20 14:25:00,81.3,72.6,29.89,North,355,12.0,12.0,75,0.00,,,0.00,534,Wunderground v.1.15,2014-12-20 20:25:00,
2014-12-20 14:30:00,81.3,72.6,29.89,North,351,10.0,11.0,75,0.00,,,0.00,476,Wunderground v.1.15,2014-12-20 20:30:00,
2014-12-20 14:40:00,81.0,72.3,29.89,NNW,327,10.0,11.0,75,0.00,,,0.00,445,Wunderground v.1.15,2014-12-20 20:40:00,
2014-12-20 14:45:00,81.0,72.3,29.89,North,5,10.0,11.0,75,0.00,,,0.00,446,Wunderground v.1.15,2014-12-20 20:45:00,
2014-12-20 14:55:00,81.1,71.6,29.89,North,355,10.0,11.0,73,0.00,,,0.00,141,Wunderground v.1.15,2014-12-20 20:55:00,
2014-12-20 15:00:00,80.8,71.3,29.89,NNW,340,10.0,13.0,73,0.00,,,0.00,142,Wunderground v.1.15,2014-12-20 21:00:00,
2014-12-20 15:10:00,81.2,70.9,29.89,North,355,9.0,13.0,71,0.00,,,0.00,364,Wunderground v.1.15,2014-12-20 21:10:00,
2014-12-20 15:20:00,81.2,70.9,29.88,North,355,10.0,13.0,71,0.00,,,0.00,329,Wunderground v.1.15,2014-12-20 21:20:00,
2014-12-20 15:30:00,80.7,70.4,29.88,NNE,13,12.0,14.0,71,0.00,,,0.00,304,Wunderground v.1.15,2014-12-20 21:30:00,
2014-12-20 15:35:00,80.7,70.4,29.89,North,5,11.0,14.0,71,0.00,,,0.00,287,Wunderground v.1.15,2014-12-20 21:35:00,
2014-12-20 15:40:00,80.8,70.5,29.89,North,9,11.0,12.0,71,0.00,,,0.00,272,Wunderground v.1.15,2014-12-20 21:40:00,
2014-12-20 15:50:00,80.4,70.1,29.89,NNE,23,11.0,11.0,71,0.00,,,0.00,232,Wunderground v.1.15,2014-12-20 21:50:00,
2014-12-20 16:00:00,80.3,70.9,29.89,North,360,9.0,9.0,73,0.00,,,0.00,195,Wunderground v.1.15,2014-12-20 22:00:00,
2014-12-20 16:10:00,80.3,70.9,29.89,North,9,8.0,8.0,73,0.00,,,0.00,160,Wunderground v.1.15,2014-12-20 22:10:00,
2014-12-20 16:20:00,79.5,70.9,29.89,NNE,26,9.0,15.0,75,0.00,,,0.00,121,Wunderground v.1.15,2014-12-20 22:20:00,
2014-12-20 16:30:00,78.7,71.3,29.89,North,355,12.0,12.0,78,0.00,,,0.00,86,Wunderground v.1.15,2014-12-20 22:30:00,
2014-12-20 16:40:00,78.3,71.2,29.89,North,355,10.0,10.0,79,0.00,,,0.00,56,Wunderground v.1.15,2014-12-20 22:40:00,
2014-12-20 16:50:00,77.9,71.6,29.90,NE,36,9.0,9.0,81,0.00,,,0.00,26,Wunderground v.1.15,2014-12-20 22:50:00,
2014-12-20 17:00:00,77.2,71.6,29.91,North,11,8.0,12.0,83,0.00,,,0.00,18,Wunderground v.1.15,2014-12-20 23:00:00,
2014-12-20 17:10:00,76.7,71.8,29.91,NNE,20,9.0,10.0,85,0.00,,,0.00,11,Wunderground v.1.15,2014-12-20 23:10:00,
2014-12-20 17:20:00,76.2,71.7,29.91,North,360,10.0,10.0,86,0.00,,,0.00,0,Wunderground v.1.15,2014-12-20 23:20:00,
2014-12-20 17:30:00,76.0,71.8,29.92,North,360,9.0,9.0,87,0.00,,,0.00,0,Wunderground v.1.15,2014-12-20 23:30:00,
2014-12-20 17:40:00,75.6,71.5,29.92,NNE,28,9.0,9.0,87,0.00,,,0.00,0,Wunderground v.1.15,2014-12-20 23:40:00,
2014-12-20 17:50:00,75.3,71.5,29.92,NNE,25,6.0,7.0,88,0.00,,,0.00,0,Wunderground v.1.15,2014-12-20 23:50:00,
2014-12-20 18:00:00,75.0,71.5,29.93,North,11,5.0,6.0,89,0.00,,,0.00,0,Wunderground v.1.15,2014-12-21 00:00:00,
2014-12-20 18:10:00,74.8,71.3,29.93,North,11,5.0,5.0,89,0.00,,,0.00,0,Wunderground v.1.15,2014-12-21 00:10:00,
2014-12-20 18:20:00,74.6,71.5,29.93,North,360,6.0,6.0,90,0.00,,,0.00,0,Wunderground v.1.15,2014-12-21 00:20:00,
2014-12-20 18:30:00,74.4,71.3,29.93,NNE,21,5.0,5.0,90,0.00,,,0.00,0,Wunderground v.1.15,2014-12-21 00:30:00,
2014-12-20 18:40:00,74.3,71.5,29.93,NNE,13,5.0,5.0,91,0.00,,,0.00,0,Wunderground v.1.15,2014-12-21 00:40:00,
2014-12-20 18:50:00,74.0,71.2,29.94,NNE,30,6.0,7.0,91,0.00,,,0.00,0,Wunderground v.1.15,2014-12-21 00:50:00,
2014-12-20 19:00:00,73.7,71.2,29.94,NE,34,6.0,7.0,92,0.00,,,0.00,0,Wunderground v.1.15,2014-12-21 01:00:00,
2014-12-20 19:10:00,73.4,71.3,29.94,NNE,32,5.0,5.0,93,0.00,,,0.00,0,Wunderground v.1.15,2014-12-21 01:10:00,
2014-12-20 19:20:00,73.2,71.1,29.94,NNE,31,5.0,5.0,93,0.00,,,0.00,0,Wunderground v.1.15,2014-12-21 01:20:00,
2014-12-20 19:30:00,72.9,71.1,29.94,NNE,19,5.0,5.0,94,0.00,,,0.00,0,Wunderground v.1.15,2014-12-21 01:30:00,
2014-12-20 19:40:00,72.7,70.9,29.94,North,10,4.0,4.0,94,0.00,,,0.00,0,Wunderground v.1.15,2014-12-21 01:40:00,
2014-12-20 19:50:00,72.4,70.6,29.94,NNW,348,4.0,4.0,94,0.00,,,0.00,0,Wunderground v.1.15,2014-12-21 01:50:00,
2014-12-20 20:00:00,71.8,70.3,29.94,WNW,300,3.0,4.0,95,0.00,,,0.00,0,Wunderground v.1.15,2014-12-21 02:00:00,
2014-12-20 20:10:00,71.5,70.0,29.94,WNW,288,4.0,4.0,95,0.00,,,0.00,0,Wunderground v.1.15,2014-12-21 02:10:00,
2014-12-20 20:20:00,71.4,69.9,29.95,WNW,299,3.0,3.0,95,0.00,,,0.00,0,Wunderground v.1.15,2014-12-21 02:20:00,
2014-12-20 20:25:00,71.4,69.9,29.95,WNW,302,3.0,4.0,95,0.00,,,0.00,0,Wunderground v.1.15,2014-12-21 02:25:00,
2014-12-20 20:35:00,71.4,70.2,29.95,NW,304,3.0,4.0,96,0.00,,,0.00,0,Wunderground v.1.15,2014-12-21 02:35:00,
2014-12-20 20:45:00,71.3,70.1,29.95,NW,310,4.0,5.0,96,0.00,,,0.00,0,Wunderground v.1.15,2014-12-21 02:45:00,
2014-12-20 20:55:00,71.3,70.1,29.95,NW,317,4.0,6.0,96,0.00,,,0.00,0,Wunderground v.1.15,2014-12-21 02:55:00,
2014-12-20 21:00:00,71.3,70.1,29.95,NW,317,4.0,4.0,96,0.00,,,0.00,0,Wunderground v.1.15,2014-12-21 03:00:00,
2014-12-20 21:10:00,71.3,70.1,29.95,NW,317,3.0,3.0,96,0.00,,,0.00,0,Wunderground v.1.15,2014-12-21 03:10:00,
2014-12-20 21:20:00,71.4,70.5,29.97,NW,317,2.0,2.0,97,0.00,,,0.00,0,Wunderground v.1.15,2014-12-21 03:20:00,
2014-12-20 21:30:00,71.6,70.4,29.97,NW,317,2.0,2.0,96,0.00,,,0.00,0,Wunderground v.1.15,2014-12-21 03:30:00,
2014-12-20 21:35:00,71.6,70.7,29.97,NW,317,1.0,2.0,97,0.00,,,0.00,0,Wunderground v.1.15,2014-12-21 03:35:00,
2014-12-20 21:40:00,71.6,70.7,29.97,NW,317,1.0,2.0,97,0.00,,,0.00,0,Wunderground v.1.15,2014-12-21 03:40:00,
2014-12-20 21:50:00,71.6,70.7,29.97,NW,317,1.0,1.0,97,0.00,,,0.00,0,Wunderground v.1.15,2014-12-21 03:50:00,
2014-12-20 21:55:00,71.6,70.7,29.97,North,5,0.0,5.0,97,0.00,,,0.00,0,Wunderground v.1.15,2014-12-21 03:55:00,
2014-12-20 22:00:00,71.4,70.5,29.98,NNE,18,0.0,1.0,97,0.00,,,0.00,0,Wunderground v.1.15,2014-12-21 04:00:00,
2014-12-20 22:10:00,71.4,70.5,29.98,NNE,25,2.0,3.0,97,0.00,,,0.00,0,Wunderground v.1.15,2014-12-21 04:10:00,
2014-12-20 22:15:00,71.5,70.6,29.97,NNE,25,3.0,3.0,97,0.00,,,0.00,0,Wunderground v.1.15,2014-12-21 04:15:00,